Time;durP1;ratioP1;P1;durP2;ratioP2;P2;SDS_P1;SDS_P2;PMS_P1;PMS_P2;Temp;Humidity;BMP_temperature;BMP_pressure;BME280_temperature;BME280_humidity;BME280_pressure;Samples;Min_cycle;Max_cycle;Signal;HPM_P1;HPM_P2
2021/11/23 00:01:25;;;;;;;16.58;15.38;;;21.40;99.90;;;;;;5036772;28;20033;-78
2021/11/23 00:03:53;;;;;;;16.75;15.55;;;21.50;99.90;;;;;;5035873;28;20056;-78
2021/11/23 00:06:21;;;;;;;15.98;14.98;;;21.70;99.90;;;;;;5036442;28;20025;-78
2021/11/23 00:08:49;;;;;;;16.00;15.10;;;21.40;99.90;;;;;;5037722;28;20482;-78
2021/11/23 00:11:16;;;;;;;16.90;15.65;;;21.40;99.90;;;;;;5036377;28;20033;-83
2021/11/23 00:13:43;;;;;;;17.40;15.80;;;21.30;99.90;;;;;;5035885;28;20026;-76
2021/11/23 00:16:11;;;;;;;16.83;15.65;;;21.50;99.90;;;;;;5036983;28;20029;-75
2021/11/23 00:18:38;;;;;;;17.30;16.08;;;21.70;99.90;;;;;;5035611;28;20490;-78
2021/11/23 00:21:06;;;;;;;15.90;14.90;;;21.80;99.90;;;;;;5036944;28;20029;-78
2021/11/23 00:23:33;;;;;;;16.08;15.00;;;22.10;99.90;;;;;;5035852;28;20056;-78
2021/11/23 00:26:00;;;;;;;15.32;14.23;;;22.40;99.90;;;;;;5035578;28;20021;-78
2021/11/23 00:28:28;;;;;;;15.25;13.93;;;22.50;99.90;;;;;;5035377;28;20021;-77
2021/11/23 00:30:56;;;;;;;14.45;13.32;;;22.60;99.90;;;;;;5035082;28;20037;-77
2021/11/23 00:33:23;;;;;;;14.60;13.48;;;23.20;99.90;;;;;;5035979;28;20541;-77
2021/11/23 00:35:51;;;;;;;12.85;11.65;;;23.10;99.90;;;;;;5035229;28;20033;-77
2021/11/23 00:38:19;;;;;;;13.40;12.25;;;22.90;99.90;;;;;;5035408;28;20509;-76
2021/11/23 00:40:47;;;;;;;13.68;12.45;;;22.80;99.90;;;;;;5035246;28;20060;-76
2021/11/23 00:43:17;;;;;;;12.57;11.48;;;22.60;99.90;;;;;;5036260;28;20041;-76
2021/11/23 00:45:44;;;;;;;14.77;12.50;;;22.50;99.90;;;;;;5036165;28;20028;-76
2021/11/23 00:48:12;;;;;;;13.05;11.85;;;22.30;99.90;;;;;;5035570;28;20030;-77
2021/11/23 00:50:39;;;;;;;13.93;12.60;;;22.20;99.90;;;;;;5036331;28;20104;-77
2021/11/23 00:53:07;;;;;;;14.73;13.25;;;21.90;99.90;;;;;;5036609;28;20026;-77
2021/11/23 00:55:35;;;;;;;14.45;13.35;;;21.70;99.90;;;;;;5035227;28;20021;-78
2021/11/23 00:58:02;;;;;;;14.73;13.63;;;21.80;99.90;;;;;;5034961;28;20433;-78
2021/11/23 01:00:30;;;;;;;16.10;14.60;;;21.80;99.90;;;;;;5034896;28;20025;-78
2021/11/23 01:02:57;;;;;;;16.48;14.98;;;21.90;99.90;;;;;;5035247;28;20121;-77
2021/11/23 01:05:25;;;;;;;16.50;15.02;;;21.90;99.90;;;;;;5034705;28;20073;-77
2021/11/23 01:07:52;;;;;;;14.85;13.52;;;22.50;99.90;;;;;;5034867;28;20026;-78
2021/11/23 01:10:20;;;;;;;15.60;14.20;;;22.90;99.90;;;;;;5036863;28;20053;-77
2021/11/23 01:12:47;;;;;;;14.80;13.52;;;23.10;99.90;;;;;;5036256;28;20026;-77
2021/11/23 01:15:15;;;;;;;15.02;13.55;;;23.20;99.90;;;;;;5034954;28;20371;-78
2021/11/23 01:17:43;;;;;;;15.23;13.80;;;23.40;99.90;;;;;;5036171;28;20018;-77
2021/11/23 01:20:12;;;;;;;13.10;12.20;;;23.30;99.90;;;;;;5034287;28;20475;-77
2021/11/23 01:22:42;;;;;;;13.27;12.18;;;23.00;99.90;;;;;;5035587;28;20022;-77
2021/11/23 01:25:10;;;;;;;13.30;12.10;;;22.50;99.90;;;;;;5034285;28;20022;-76
2021/11/23 01:27:37;;;;;;;13.20;12.20;;;22.30;99.90;;;;;;5034290;28;20049;-77
2021/11/23 01:30:07;;;;;;;14.45;13.13;;;22.00;99.90;;;;;;5035587;28;20382;-77
2021/11/23 01:32:34;;;;;;;15.02;13.85;;;21.70;99.90;;;;;;5034835;28;20028;-76
2021/11/23 01:35:01;;;;;;;15.55;14.00;;;21.80;99.90;;;;;;5035696;28;20025;-76
2021/11/23 01:37:29;;;;;;;16.05;14.70;;;21.80;99.90;;;;;;5034454;28;20025;-77
2021/11/23 01:39:57;;;;;;;15.55;14.15;;;22.00;99.90;;;;;;5035615;28;20079;-77
2021/11/23 01:42:25;;;;;;;15.00;13.52;;;22.70;99.90;;;;;;5035598;28;20076;-76
2021/11/23 01:44:52;;;;;;;13.95;12.75;;;22.70;99.90;;;;;;5034507;28;20025;-76
2021/11/23 01:47:20;;;;;;;14.73;13.43;;;22.60;99.90;;;;;;5033492;28;20024;-77
2021/11/23 01:49:48;;;;;;;14.60;13.48;;;22.40;99.90;;;;;;5033449;28;20390;-77
2021/11/23 01:52:15;;;;;;;15.30;13.88;;;22.30;99.90;;;;;;5033890;28;20476;-76
2021/11/23 01:54:43;;;;;;;15.00;13.70;;;22.30;99.90;;;;;;5033639;28;20371;-77
2021/11/23 01:57:11;;;;;;;16.90;15.50;;;22.10;99.90;;;;;;5034933;28;20390;-77
2021/11/23 01:59:40;;;;;;;17.10;15.63;;;22.30;99.90;;;;;;5035148;28;20501;-77
2021/11/23 02:02:07;;;;;;;16.15;14.80;;;22.60;99.90;;;;;;5033776;28;20116;-76
2021/11/23 02:04:35;;;;;;;15.10;14.10;;;22.50;99.90;;;;;;5034610;28;20560;-76
2021/11/23 02:07:02;;;;;;;16.02;14.80;;;22.10;99.90;;;;;;5033597;28;20398;-75
2021/11/23 02:09:29;;;;;;;16.65;15.38;;;22.00;99.90;;;;;;5034590;28;20014;-76
2021/11/23 02:11:58;;;;;;;17.60;16.23;;;21.90;99.90;;;;;;5033176;28;20018;-78
2021/11/23 02:14:27;;;;;;;16.90;15.60;;;21.90;99.90;;;;;;5017357;28;20068;-77
2021/11/23 02:16:55;;;;;;;15.98;14.77;;;22.20;99.90;;;;;;5034937;28;20018;-76
2021/11/23 02:19:23;;;;;;;14.98;13.95;;;22.20;99.90;;;;;;5034245;28;20095;-77
2021/11/23 02:21:50;;;;;;;16.20;15.00;;;22.60;99.90;;;;;;5034877;28;20113;-77
2021/11/23 02:24:18;;;;;;;16.48;15.27;;;22.50;99.90;;;;;;5033974;28;20441;-77
2021/11/23 02:26:45;;;;;;;18.33;14.63;;;22.70;99.90;;;;;;5035110;28;20063;-76
2021/11/23 02:29:13;;;;;;;15.15;14.10;;;22.60;99.90;;;;;;5033471;28;20030;-77
2021/11/23 02:31:40;;;;;;;14.85;13.73;;;22.70;99.90;;;;;;5034012;28;20021;-78
2021/11/23 02:34:08;;;;;;;14.35;13.55;;;23.00;99.90;;;;;;5033443;28;20017;-78
2021/11/23 02:36:36;;;;;;;14.88;13.65;;;23.50;99.90;;;;;;5035003;28;20017;-79
2021/11/23 02:39:04;;;;;;;13.77;12.77;;;23.70;99.90;;;;;;5033273;28;20040;-76
2021/11/23 02:41:32;;;;;;;14.60;13.32;;;24.20;99.90;;;;;;5034483;28;20135;-75
2021/11/23 02:43:59;;;;;;;13.07;12.15;;;24.60;99.90;;;;;;5033205;28;20017;-76
2021/11/23 02:46:27;;;;;;;11.82;11.02;;;25.00;99.90;;;;;;5034252;28;20083;-75
2021/11/23 02:48:54;;;;;;;11.52;10.60;;;25.00;99.90;;;;;;5034134;28;20021;-76
2021/11/23 02:51:21;;;;;;;12.80;11.60;;;25.00;99.90;;;;;;5032844;28;20032;-76
2021/11/23 02:53:50;;;;;;;11.23;10.38;;;24.80;99.90;;;;;;5033965;28;20394;-76
2021/11/23 02:56:19;;;;;;;10.70;9.65;;;24.40;99.90;;;;;;5032476;28;20030;-76
2021/11/23 02:58:49;;;;;;;10.02;9.18;;;24.40;99.90;;;;;;5032791;28;20026;-76
2021/11/23 03:01:25;;;;;;;10.77;9.70;;;24.20;99.90;;;;;;5037512;28;20109;-77
2021/11/23 03:03:56;;;;;;;10.80;9.75;;;23.80;99.90;;;;;;5037400;28;20474;-77
2021/11/23 03:06:25;;;;;;;11.30;9.35;;;23.70;99.90;;;;;;5037882;28;20025;-77
2021/11/23 03:08:54;;;;;;;10.63;9.60;;;23.50;99.90;;;;;;5038017;28;20045;-76
2021/11/23 03:11:23;;;;;;;10.73;9.75;;;23.20;99.90;;;;;;5038050;28;20474;-77
2021/11/23 03:13:51;;;;;;;11.23;10.30;;;23.00;99.90;;;;;;5036634;28;20025;-77
2021/11/23 03:16:19;;;;;;;12.75;11.65;;;22.90;99.90;;;;;;5038192;28;20033;-77
2021/11/23 03:18:47;;;;;;;12.98;11.98;;;23.00;99.90;;;;;;5036522;28;20030;-77
2021/11/23 03:21:14;;;;;;;13.65;12.52;;;23.10;99.90;;;;;;5036348;28;20037;-76
2021/11/23 03:23:42;;;;;;;14.07;12.88;;;23.10;99.90;;;;;;5037216;28;20030;-76
2021/11/23 03:26:10;;;;;;;14.00;12.85;;;23.50;99.90;;;;;;5037198;28;20053;-76
2021/11/23 03:28:38;;;;;;;14.23;13.07;;;23.80;99.90;;;;;;5035999;28;20048;-75
2021/11/23 03:31:05;;;;;;;11.70;10.80;;;24.00;99.90;;;;;;5037168;28;20040;-76
2021/11/23 03:33:32;;;;;;;10.85;9.85;;;24.20;99.90;;;;;;5037692;28;20018;-76
2021/11/23 03:36:00;;;;;;;11.80;10.60;;;23.70;99.90;;;;;;5038230;28;20029;-77
2021/11/23 03:38:28;;;;;;;11.07;10.13;;;23.80;99.90;;;;;;5036116;28;20505;-77
2021/11/23 03:40:56;;;;;;;11.63;10.65;;;23.50;99.90;;;;;;5037286;28;20033;-76
2021/11/23 03:43:23;;;;;;;10.90;10.10;;;23.70;99.90;;;;;;5035964;28;20032;-76
2021/11/23 03:45:50;;;;;;;11.90;10.82;;;24.00;99.90;;;;;;5035818;28;20021;-75
2021/11/23 03:48:18;;;;;;;11.38;10.20;;;24.30;99.90;;;;;;5036044;28;20060;-75
2021/11/23 03:50:45;;;;;;;10.77;9.60;;;24.20;99.90;;;;;;5036197;28;20032;-75
2021/11/23 03:53:13;;;;;;;11.73;10.52;;;24.20;99.90;;;;;;5037073;28;20028;-76
2021/11/23 03:55:42;;;;;;;10.48;9.57;;;24.10;99.90;;;;;;5035903;28;20029;-76
2021/11/23 03:58:10;;;;;;;10.07;9.25;;;24.20;99.90;;;;;;5035688;28;20479;-75
2021/11/23 04:00:37;;;;;;;9.93;8.85;;;24.10;99.90;;;;;;5035667;28;20036;-76
2021/11/23 04:03:04;;;;;;;10.25;9.43;;;24.00;99.90;;;;;;5037077;28;20022;-75
2021/11/23 04:05:32;;;;;;;11.35;8.70;;;23.40;99.90;;;;;;5035460;28;20037;-77
2021/11/23 04:07:59;;;;;;;10.68;9.57;;;23.30;99.90;;;;;;5035873;28;20022;-76
2021/11/23 04:10:27;;;;;;;11.63;9.98;;;22.90;99.90;;;;;;5035047;28;20035;-76
2021/11/23 04:12:54;;;;;;;11.65;10.75;;;22.70;99.90;;;;;;5035156;28;20049;-76
2021/11/23 04:15:22;;;;;;;13.32;12.23;;;22.60;99.90;;;;;;5034912;28;20026;-76
2021/11/23 04:17:50;;;;;;;14.15;13.07;;;22.60;99.90;;;;;;5035817;28;20032;-77
2021/11/23 04:20:17;;;;;;;14.70;13.60;;;22.50;99.90;;;;;;5036732;28;20112;-76
2021/11/23 04:22:45;;;;;;;14.70;13.23;;;22.40;99.90;;;;;;5035281;28;20510;-77
2021/11/23 04:25:13;;;;;;;15.13;13.77;;;22.10;99.90;;;;;;5036877;28;20025;-77
2021/11/23 04:27:41;;;;;;;15.27;14.30;;;22.00;99.90;;;;;;5036732;28;20021;-76
2021/11/23 04:30:12;;;;;;;15.45;14.43;;;21.80;99.90;;;;;;5035432;28;20025;-77
2021/11/23 04:32:42;;;;;;;15.65;14.65;;;21.80;99.90;;;;;;5035965;28;20018;-77
2021/11/23 04:35:11;;;;;;;16.45;15.45;;;21.70;99.90;;;;;;5036108;28;20033;-77
2021/11/23 04:37:39;;;;;;;16.05;15.10;;;21.70;99.90;;;;;;5036307;28;20443;-77
2021/11/23 04:40:08;;;;;;;16.70;15.50;;;21.40;99.90;;;;;;5036135;28;20362;-77
2021/11/23 04:42:36;;;;;;;17.60;15.90;;;21.30;99.90;;;;;;5034846;28;20060;-77
2021/11/23 04:45:08;;;;;;;17.25;16.10;;;21.30;99.90;;;;;;5018736;28;20375;-77
2021/11/23 04:47:37;;;;;;;16.80;15.52;;;21.20;99.90;;;;;;5036843;28;20026;-77
2021/11/23 04:50:06;;;;;;;17.92;16.67;;;21.10;99.90;;;;;;5036132;28;20474;-77
2021/11/23 04:52:34;;;;;;;18.02;16.83;;;21.30;99.90;;;;;;5034934;28;20021;-77
2021/11/23 04:55:02;;;;;;;18.52;16.95;;;21.60;99.90;;;;;;5036103;28;20091;-77
2021/11/23 04:57:30;;;;;;;18.30;16.70;;;21.70;99.90;;;;;;5034730;28;20030;-77
2021/11/23 04:59:57;;;;;;;17.35;16.00;;;21.90;99.90;;;;;;5035906;28;20477;-77
2021/11/23 05:02:24;;;;;;;18.00;16.60;;;21.90;99.90;;;;;;5034914;28;20112;-77
2021/11/23 05:04:52;;;;;;;17.83;16.67;;;22.20;99.90;;;;;;5034333;28;20528;-77
2021/11/23 05:07:20;;;;;;;16.98;15.77;;;22.40;99.90;;;;;;5036104;28;20018;-77
2021/11/23 05:09:47;;;;;;;17.23;15.93;;;22.50;99.90;;;;;;5034732;28;20072;-77
2021/11/23 05:12:15;;;;;;;18.55;16.90;;;22.60;99.90;;;;;;5034660;28;20096;-76
2021/11/23 05:14:42;;;;;;;16.73;15.50;;;22.50;99.90;;;;;;5036026;28;20047;-77
2021/11/23 05:17:10;;;;;;;16.17;15.07;;;22.70;99.90;;;;;;5034461;28;20436;-77
2021/11/23 05:19:37;;;;;;;16.58;15.13;;;22.70;99.90;;;;;;5035679;28;20024;-77
2021/11/23 05:22:04;;;;;;;16.08;15.00;;;22.40;99.90;;;;;;5034482;28;20028;-77
2021/11/23 05:24:32;;;;;;;15.27;14.25;;;22.50;99.90;;;;;;5034318;28;20448;-77
2021/11/23 05:27:00;;;;;;;15.90;14.70;;;22.30;99.90;;;;;;5035691;28;20071;-77
2021/11/23 05:29:28;;;;;;;16.65;15.25;;;22.10;99.90;;;;;;5034387;28;20079;-75
2021/11/23 05:31:57;;;;;;;;;;;22.10;99.90;;;;;;5034620;28;20045;-77
2021/11/23 05:34:25;;;;;;;15.77;14.50;;;22.10;99.90;;;;;;5034900;28;20281;-76
2021/11/23 05:36:52;;;;;;;15.85;14.43;;;22.30;99.90;;;;;;5035588;28;20017;-78
2021/11/23 05:39:20;;;;;;;17.40;15.70;;;22.70;99.90;;;;;;5035382;28;20453;-77
2021/11/23 05:41:49;;;;;;;15.10;13.75;;;23.10;99.90;;;;;;5034239;28;20112;-76
2021/11/23 05:44:17;;;;;;;15.52;14.13;;;23.20;99.90;;;;;;5035419;28;20017;-77
2021/11/23 05:46:45;;;;;;;13.52;12.32;;;23.10;99.90;;;;;;5035450;28;20025;-76
2021/11/23 05:49:13;;;;;;;13.40;12.20;;;22.80;99.90;;;;;;5033785;28;20033;-76
2021/11/23 05:51:40;;;;;;;15.55;13.95;;;22.70;99.90;;;;;;5033740;28;20116;-77
2021/11/23 05:54:07;;;;;;;15.48;14.23;;;22.60;99.90;;;;;;5033925;28;20060;-76
2021/11/23 05:56:35;;;;;;;14.70;13.70;;;22.70;99.90;;;;;;5033697;28;20033;-76
2021/11/23 05:59:03;;;;;;;15.45;14.20;;;22.70;99.90;;;;;;5033852;28;20478;-77
2021/11/23 06:01:33;;;;;;;15.68;14.30;;;22.40;99.90;;;;;;5034994;28;20471;-76
2021/11/23 06:04:01;;;;;;;16.10;14.68;;;22.30;99.90;;;;;;5034787;28;20569;-76
2021/11/23 06:06:28;;;;;;;16.33;14.80;;;21.90;99.90;;;;;;5033723;28;20380;-76
2021/11/23 06:08:55;;;;;;;17.35;14.20;;;21.80;99.90;;;;;;5033714;28;20512;-76
2021/11/23 06:11:23;;;;;;;16.33;14.73;;;21.80;99.90;;;;;;5034101;28;20026;-77
2021/11/23 06:13:51;;;;;;;16.25;15.07;;;21.80;99.90;;;;;;5033859;28;20385;-76
2021/11/23 06:16:18;;;;;;;17.70;16.10;;;21.80;99.90;;;;;;5034104;28;20032;-79
2021/11/23 06:18:46;;;;;;;18.42;16.45;;;21.70;99.90;;;;;;5033648;28;20037;-76
2021/11/23 06:21:13;;;;;;;17.33;15.98;;;21.70;99.90;;;;;;5034990;28;20026;-74
2021/11/23 06:23:41;;;;;;;17.33;15.90;;;21.70;99.90;;;;;;5033586;28;20061;-74
2021/11/23 06:26:09;;;;;;;17.20;15.73;;;21.70;99.90;;;;;;5033091;28;20029;-75
2021/11/23 06:28:36;;;;;;;17.58;16.08;;;21.40;99.90;;;;;;5034590;28;20045;-76
2021/11/23 06:31:04;;;;;;;17.58;16.05;;;21.30;99.90;;;;;;5034936;28;20026;-77
2021/11/23 06:33:31;;;;;;;17.80;16.10;;;21.20;99.90;;;;;;5033664;28;20022;-77
2021/11/23 06:35:58;;;;;;;17.63;16.10;;;21.10;99.90;;;;;;5036379;28;20036;-77
2021/11/23 06:38:26;;;;;;;18.50;16.73;;;21.20;99.90;;;;;;5036156;28;20059;-75
2021/11/23 06:40:53;;;;;;;17.17;15.93;;;21.20;99.90;;;;;;5033209;28;20032;-75
2021/11/23 06:43:20;;;;;;;17.77;16.30;;;21.10;99.90;;;;;;5032862;28;20025;-75
2021/11/23 06:45:50;;;;;;;;;;;21.20;99.90;;;;;;5033981;28;20029;-75
2021/11/23 06:48:18;;;;;;;15.60;14.27;;;21.20;99.90;;;;;;5032806;28;19905;-76
2021/11/23 06:50:45;;;;;;;17.75;16.25;;;21.40;99.90;;;;;;5016295;28;20052;-76
2021/11/23 06:53:13;;;;;;;17.80;16.50;;;21.30;99.90;;;;;;5034191;28;20018;-76
2021/11/23 06:55:42;;;;;;;17.92;16.20;;;21.30;99.90;;;;;;5033260;28;20029;-76
2021/11/23 06:58:10;;;;;;;17.63;16.20;;;21.30;99.90;;;;;;5016687;28;20085;-75
2021/11/23 07:00:39;;;;;;;16.98;15.38;;;21.30;99.90;;;;;;5033798;28;20025;-76
2021/11/23 07:03:08;;;;;;;16.77;15.50;;;21.20;99.90;;;;;;5016763;28;20037;-74
2021/11/23 07:05:35;;;;;;;16.02;14.80;;;21.30;99.90;;;;;;5032873;28;20056;-75
2021/11/23 07:08:03;;;;;;;17.08;15.70;;;21.10;99.90;;;;;;5033238;28;20113;-74
2021/11/23 07:10:31;;;;;;;18.40;16.85;;;21.10;99.90;;;;;;5033275;28;20498;-75
2021/11/23 07:12:59;;;;;;;16.60;15.23;;;21.20;99.90;;;;;;5034404;28;20018;-74
2021/11/23 07:15:27;;;;;;;16.70;15.32;;;21.40;99.90;;;;;;5034446;28;20033;-76
2021/11/23 07:17:54;;;;;;;16.98;15.40;;;21.40;99.90;;;;;;5034014;28;20105;-75
2021/11/23 07:20:21;;;;;;;16.60;15.00;;;21.40;99.90;;;;;;5032946;28;20482;-75
2021/11/23 07:22:49;;;;;;;17.30;15.63;;;21.30;99.90;;;;;;5034071;28;20109;-75
2021/11/23 07:25:16;;;;;;;17.27;15.60;;;21.10;99.90;;;;;;5034160;28;20086;-76
2021/11/23 07:27:44;;;;;;;17.05;15.65;;;21.00;99.90;;;;;;5033062;28;20022;-76
2021/11/23 07:30:12;;;;;;;16.83;15.35;;;20.90;99.90;;;;;;5032980;28;20033;-76
2021/11/23 07:32:40;;;;;;;16.80;15.35;;;20.80;99.90;;;;;;5033676;28;20049;-75
2021/11/23 07:35:08;;;;;;;16.85;15.52;;;20.80;99.90;;;;;;5032327;28;20036;-75
2021/11/23 07:37:41;;;;;;;15.52;14.43;;;20.70;99.90;;;;;;5032310;28;20036;-75
2021/11/23 07:40:10;;;;;;;16.17;15.13;;;20.70;99.90;;;;;;5032489;28;20022;-75
2021/11/23 07:42:38;;;;;;;17.25;15.80;;;20.70;99.90;;;;;;5034086;28;20485;-75
2021/11/23 07:45:07;;;;;;;16.30;15.25;;;20.70;99.90;;;;;;5032632;28;20029;-75
2021/11/23 07:47:35;;;;;;;17.27;15.93;;;20.70;99.90;;;;;;5037250;28;20029;-75
2021/11/23 07:50:03;;;;;;;18.17;16.55;;;20.70;99.90;;;;;;5036008;28;20083;-76
2021/11/23 07:52:30;;;;;;;17.08;15.68;;;20.70;99.90;;;;;;5035792;28;20026;-75
2021/11/23 07:54:58;;;;;;;17.63;16.00;;;20.70;99.90;;;;;;5035910;28;20021;-76
2021/11/23 07:57:25;;;;;;;17.65;16.25;;;20.50;99.90;;;;;;5037098;28;20108;-75
2021/11/23 07:59:53;;;;;;;17.55;16.25;;;20.50;99.90;;;;;;5037464;28;20017;-75
2021/11/23 08:02:20;;;;;;;17.92;16.60;;;20.50;99.90;;;;;;5036332;28;20022;-75
2021/11/23 08:04:47;;;;;;;18.40;16.80;;;20.50;99.90;;;;;;5036500;28;20394;-74
2021/11/23 08:07:15;;;;;;;17.95;16.67;;;20.50;99.90;;;;;;5035747;28;20021;-75
2021/11/23 08:09:43;;;;;;;17.95;16.55;;;;;;;;;;5035174;28;20424;-77
2021/11/23 08:12:12;;;;;;;18.58;17.13;;;;;;;;;;5035398;28;20022;-75
2021/11/23 08:14:39;;;;;;;17.52;16.30;;;;;;;;;;5035576;28;20017;-74
2021/11/23 08:17:06;;;;;;;18.27;17.15;;;;;;;;;;5036936;28;20025;-74
2021/11/23 08:19:33;;;;;;;17.92;16.73;;;;;;;;;;5035204;28;20041;-77
2021/11/23 08:22:00;;;;;;;18.00;16.63;;;;;;;;;;5036551;28;20026;-78
2021/11/23 08:24:28;;;;;;;18.10;16.75;;;;;;;;;;5037556;28;20013;-77
2021/11/23 08:26:59;;;;;;;17.45;16.25;;;;;;;;;;5035861;28;20565;-77
2021/11/23 08:29:26;;;;;;;17.88;16.65;;;;;;;;;;5036562;28;20045;-77
2021/11/23 08:31:55;;;;;;;18.52;17.20;;;;;;;;;;5035277;28;20021;-77
2021/11/23 08:34:23;;;;;;;18.38;17.00;;;;;;;;;;5036519;28;20024;-76
2021/11/23 08:36:50;;;;;;;17.88;16.67;;;;;;;;;;5036748;28;20048;-75
2021/11/23 08:39:17;;;;;;;17.67;16.60;;;;;;;;;;5036807;28;20505;-75
2021/11/23 08:41:44;;;;;;;18.70;17.40;;;;;;;;;;5035204;28;20108;-75
2021/11/23 08:44:17;;;;;;;19.60;18.27;;;;;;;;;;5036542;28;20030;-75
2021/11/23 08:46:44;;;;;;;18.08;17.08;;;;;;;;;;5036473;28;20478;-75
2021/11/23 08:49:11;;;;;;;18.60;17.52;;;;;;;;;;5035345;28;20093;-77
2021/11/23 08:51:40;;;;;;;18.27;17.08;;;;;;;;;;5035451;28;20029;-77
2021/11/23 08:54:08;;;;;;;18.73;17.52;;;;;;;;;;5037245;28;20017;-76
2021/11/23 08:56:38;;;;;;;18.73;17.73;;;;;;;;;;5036050;28;20036;-77
2021/11/23 08:59:17;;;;;;;19.38;18.25;;;;;;;;;;5037216;28;20045;-77
2021/11/23 09:01:45;;;;;;;19.45;18.13;;;;;;;;;;5035601;28;20025;-77
2021/11/23 09:04:12;;;;;;;19.75;18.45;;;;;;;;;;5037372;28;20060;-77
2021/11/23 09:06:41;;;;;;;20.38;18.95;;;;;;;;;;5037049;28;20025;-78
2021/11/23 09:09:09;;;;;;;20.38;19.25;;;;;;;;;;5035326;28;20025;-77
2021/11/23 09:11:37;;;;;;;20.35;19.08;;;;;;;;;;5037098;28;20028;-77
2021/11/23 09:14:05;;;;;;;20.02;18.60;;;;;;;;;;5036323;28;20485;-78
2021/11/23 09:16:34;;;;;;;20.55;19.05;;;;;;;;;;5019309;28;20506;-75
2021/11/23 09:19:02;;;;;;;20.33;19.17;;;;;;;;;;5035450;28;20025;-77
2021/11/23 09:21:29;;;;;;;21.90;20.27;;;;;;;;;;5036120;28;20024;-77
2021/11/23 09:23:56;;;;;;;21.40;19.85;;;;;;;;;;5034602;28;20041;-77
2021/11/23 09:26:26;;;;;;;21.45;20.05;;;;;;;;;;5034068;28;20090;-78
2021/11/23 09:28:53;;;;;;;22.13;20.58;;;;;;;;;;5034816;28;20031;-76
2021/11/23 09:31:22;;;;;;;22.88;21.15;;;;;;;;;;5035362;28;20044;-76
2021/11/23 09:33:50;;;;;;;22.10;20.60;;;;;;;;;;5034654;28;20018;-77
2021/11/23 09:36:17;;;;;;;23.75;21.90;;;;;;;;;;5036514;28;20022;-78
2021/11/23 09:38:44;;;;;;;23.70;21.77;;;;;;;;;;5034373;28;20029;-78
2021/11/23 09:41:11;;;;;;;24.00;22.10;;;;;;;;;;5035813;28;20113;-77
2021/11/23 09:43:39;;;;;;;25.27;22.30;;;;;;;;;;5034899;28;20033;-79
2021/11/23 09:46:08;;;;;;;24.15;22.35;;;;;;;;;;5036414;28;20025;-78
2021/11/23 09:48:36;;;;;;;24.17;22.23;;;;;;;;;;5034972;28;20025;-78
2021/11/23 09:51:05;;;;;;;24.35;22.58;;;;;;;;;;5036794;28;20024;-80
2021/11/23 09:53:32;;;;;;;25.15;23.33;;;;;;;;;;5036336;28;20017;-78
2021/11/23 09:55:59;;;;;;;26.35;24.10;;;;;;;;;;5035838;28;20029;-79
2021/11/23 09:58:28;;;;;;;26.80;24.50;;;;;;;;;;5035925;28;20433;-79
2021/11/23 10:01:02;;;;;;;27.60;25.40;;;;;;;;;;5035015;28;20029;-79
2021/11/23 10:03:30;;;;;;;26.85;24.83;;;;;;;;;;5034438;28;20049;-78
2021/11/23 10:06:08;;;;;;;26.65;24.45;;;;;;;;;;5034881;28;20470;-78
2021/11/23 10:08:36;;;;;;;27.35;24.75;;;;;;;;;;5033552;28;20026;-79
2021/11/23 10:11:03;;;;;;;26.45;24.38;;;;;;;;;;5035352;28;20021;-77
2021/11/23 10:13:41;;;;;;;25.75;23.95;;;;;;;;;;5034505;28;20056;-77
2021/11/23 10:16:08;;;;;;;26.33;24.13;;;;;;;;;;5033627;28;20428;-77
2021/11/23 10:18:36;;;;;;;25.77;24.02;;;;;;;;;;5033884;28;20064;-77
2021/11/23 10:21:04;;;;;;;26.20;24.02;;;;;;;;;;5034157;28;20026;-79
2021/11/23 10:23:32;;;;;;;26.48;24.30;;;;;;;;;;5035792;28;20450;-78
2021/11/23 10:26:11;;;;;;;28.45;25.75;;;;;;;;;;5035916;28;20018;-78
2021/11/23 10:28:39;;;;;;;27.98;25.50;;;;;;;;;;5035787;28;20353;-78
2021/11/23 10:31:07;;;;;;;27.42;25.27;;;;;;;;;;5035850;28;20036;-79
2021/11/23 10:33:37;;;;;;;27.00;24.75;;;;;;;;;;5034381;28;20021;-79
2021/11/23 10:36:06;;;;;;;27.17;24.70;;;;;;;;;;5033929;28;20395;-78
2021/11/23 10:38:34;;;;;;;27.42;25.13;;;;;;;;;;5033748;28;20033;-79
2021/11/23 10:41:05;;;;;;;27.55;25.08;;;;;;;;;;5034491;28;20021;-79
2021/11/23 10:43:32;;;;;;;27.08;24.65;;;;;;;;;;5033770;28;20030;-78
2021/11/23 10:46:00;;;;;;;25.85;23.45;;;;;;;;;;5034206;28;20375;-79
2021/11/23 10:48:28;;;;;;;25.65;23.50;;;;;;;;;;5036310;28;20445;-79
2021/11/23 10:51:01;;;;;;;25.05;23.08;;;;;;;;;;5035777;28;20025;-79
2021/11/23 10:53:28;;;;;;;25.27;23.17;;;;;;;;;;5034270;28;20029;-80
2021/11/23 10:55:55;;;;;;;25.13;23.33;;;;;;;;;;5033409;28;20119;-79
2021/11/23 10:58:22;;;;;;;24.88;22.90;;;;;;;;;;5033611;28;20394;-78
2021/11/23 11:00:50;;;;;;;24.70;22.77;;;;;;;;;;5034741;28;20021;-78
2021/11/23 11:03:17;;;;;;;25.60;23.75;;;;;;;;;;5034620;28;20497;-78
2021/11/23 11:05:46;;;;;;;25.48;23.30;;;;;;;;;;5034856;28;20034;-78
2021/11/23 11:08:15;;;;;;;26.60;24.45;;;;;;;;;;5033633;28;20108;-78
2021/11/23 11:10:43;;;;;;;26.88;24.67;;;;;;;;;;5033653;28;20486;-78
2021/11/23 11:13:12;;;;;;;26.42;24.38;;;;;;;;;;5033635;28;20394;-78
2021/11/23 11:15:44;;;;;;;27.23;24.83;;;;;;;;;;5034633;28;20021;-78
2021/11/23 11:18:13;;;;;;;26.67;24.55;;;;;;;;;;5033169;28;20032;-78
2021/11/23 11:20:44;;;;;;;26.65;24.65;;;;;;;;;;5034624;28;20444;-78
2021/11/23 11:23:31;;;;;;;26.60;24.00;;;;;;;;;;5038241;28;20072;-78
2021/11/23 11:26:28;;;;;;;25.58;23.77;;;;;;;;;;5038261;28;20593;-79
2021/11/23 11:28:52;;;;;;;26.55;24.58;;;;;;;;;;5037942;28;20040;-79
2021/11/23 11:31:48;;;;;;;27.40;25.38;;;;;;;;;;5038668;28;20434;-78
2021/11/23 11:34:21;;;;;;;26.73;24.63;;;;;;;;;;5038224;28;20038;-78
2021/11/23 11:36:50;;;;;;;27.58;25.58;;;;;;;;;;5037754;28;20128;-79
2021/11/23 11:39:35;;;;;;;27.75;25.50;;;;;;;;;;5038593;28;20052;-78
2021/11/23 11:42:04;;;;;;;26.55;24.42;;;;;;;;;;5037368;28;20021;-78
2021/11/23 11:44:41;;;;;;;27.42;24.98;;;;;;;;;;5037233;28;20029;-78
2021/11/23 11:47:18;;;;;;;27.23;25.08;;;;;;;;;;5036812;28;20022;-78
2021/11/23 11:50:08;;;;;;;27.85;25.67;;;;;;;;;;5036893;28;20030;-78
2021/11/23 11:53:00;;;;;;;27.60;25.30;;;;;;;;;;5036603;28;20034;-78
2021/11/23 11:55:32;;;;;;;26.15;24.13;;;;;;;;;;5038167;28;20532;-78
2021/11/23 11:58:01;;;;;;;26.17;23.98;;;;;;;;;;5038620;28;20024;-78
2021/11/23 12:00:33;;;;;;;26.77;24.52;;;;;;;;;;5036629;28;20056;-77
2021/11/23 12:03:15;;;;;;;25.75;23.85;;;;;;;;;;5037335;28;20029;-79
2021/11/23 12:05:48;;;;;;;26.25;24.40;;;;;;;;;;5037218;28;20037;-78
2021/11/23 12:08:25;;;;;;;25.65;23.75;;;;;;;;;;5038509;28;20025;-78
2021/11/23 12:10:53;;;;;;;26.38;24.27;;;;;;;;;;5036793;28;20025;-78
2021/11/23 12:13:38;;;;;;;27.08;24.50;;;;;;;;;;5037339;28;20049;-79
2021/11/23 12:16:17;;;;;;;26.15;24.02;;;;;;;;;;5036620;28;20490;-79
2021/11/23 12:19:06;;;;;;;25.60;23.63;;;;;;;;;;5036705;28;20053;-79
2021/11/23 12:21:34;;;;;;;26.20;24.00;;;;;;;;;;5036466;28;20112;-78
2021/11/23 12:24:05;;;;;;;27.23;25.23;;;;;;;;;;5036645;28;20224;-80
2021/11/23 12:26:36;;;;;;;26.77;24.83;;;;;;;;;;5036763;28;20033;-80
2021/11/23 12:29:14;;;;;;;26.55;24.85;;;;;;;;;;5037824;28;20079;-79
2021/11/23 12:31:49;;;;;;;27.13;24.98;;;;;;;;;;5037222;28;20501;-80
2021/11/23 12:34:16;;;;;;;27.48;25.25;;;;;;;;;;5036357;28;20497;-79
2021/11/23 12:36:54;;;;;;;27.05;25.08;;;;;;;;;;5036350;28;20098;-80
2021/11/23 12:39:39;;;;;;;27.42;25.02;;;;;;;;;;5037738;28;20032;-77
2021/11/23 12:42:11;;;;;;;27.27;25.13;;;;;;;;;;5036265;28;20037;-78
2021/11/23 12:44:42;;;;;;;27.33;25.20;;;;;;;;;;5019644;28;20394;-78
2021/11/23 12:47:18;;;;;;;27.50;25.30;;;;;;;;;;5019976;28;20029;-78
2021/11/23 12:49:56;;;;;;;26.90;24.73;;;;;;;;;;5037538;28;20033;-79
2021/11/23 12:52:28;;;;;;;26.50;24.35;;;;;;;;;;5037513;28;20034;-79
2021/11/23 12:54:56;;;;;;;25.58;23.95;;;;;;;;;;5020765;28;20546;-79
2021/11/23 12:57:32;;;;;;;27.08;24.77;;;;;;;;;;5038159;28;20449;-78
2021/11/23 13:00:02;;;;;;;27.20;24.95;;;;;;;;;;5036129;28;20060;-78
2021/11/23 13:02:39;;;;;;;27.13;24.77;;;;;;;;;;5037733;28;20052;-79
2021/11/23 13:05:17;;;;;;;27.85;25.40;;;;;;;;;;5037396;28;20053;-79
2021/11/23 13:07:54;;;;;;;26.67;24.85;;;;;;;;;;5036666;28;20024;-79
2021/11/23 13:10:22;;;;;;;27.00;25.20;;;;;;;;;;5037506;28;20517;-78
2021/11/23 13:12:52;;;;;;;28.63;26.13;;;;;;;;;;5035439;28;20401;-79
2021/11/23 13:15:27;;;;;;;27.23;25.00;;;;;;;;;;5035261;28;20033;-79
2021/11/23 13:18:19;;;;;;;27.98;25.80;;;;;;;;;;5036376;28;20709;-79